Time;durP1;ratioP1;P1;durP2;ratioP2;P2;SDS_P1;SDS_P2;PMS_P1;PMS_P2;Temp;Humidity;BMP_temperature;BMP_pressure;BME280_temperature;BME280_humidity;BME280_pressure;Samples;Min_cycle;Max_cycle;Signal;HPM_P1;HPM_P2
2023/01/01 00:01:26;;;;;;;19.35;11.98;;;;;;;;;;5114328;27;20052;-69
2023/01/01 00:03:53;;;;;;;25.42;13.43;;;;;;;;;;5120985;27;20577;-69
2023/01/01 00:06:20;;;;;;;22.17;12.05;;;;;;;;;;5124923;27;20051;-69
2023/01/01 00:08:46;;;;;;;21.30;11.13;;;;;;;;;;5118725;27;20054;-72
2023/01/01 00:11:13;;;;;;;32.42;16.67;;;;;;;;;;5114528;27;20040;-72
2023/01/01 00:13:41;;;;;;;20.25;11.18;;;;;;;;;;5125157;27;20054;-71
2023/01/01 00:16:09;;;;;;;23.58;13.10;;;;;;;;;;5120667;27;20048;-70
2023/01/01 00:18:35;;;;;;;19.15;10.30;;;;;;;;;;5119738;27;20106;-70
2023/01/01 00:21:03;;;;;;;21.20;13.32;;;;;;;;;;5113934;27;20414;-71
2023/01/01 00:23:29;;;;;;;18.85;11.23;;;;;;;;;;5123416;27;20078;-71
2023/01/01 00:25:56;;;;;;;23.27;11.48;;;;;;;;;;5124731;27;20062;-70
2023/01/01 00:28:22;;;;;;;24.45;11.18;;;;;;;;;;5119258;27;20087;-70
2023/01/01 00:30:49;;;;;;;17.83;10.02;;;;;;;;;;5111714;27;20559;-70
2023/01/01 00:33:15;;;;;;;18.55;9.63;;;;;;;;;;5122849;27;20051;-70
2023/01/01 00:35:42;;;;;;;17.42;9.48;;;;;;;;;;5115605;27;20055;-69
2023/01/01 00:38:08;;;;;;;23.15;11.20;;;;;;;;;;5116228;27;20057;-70
2023/01/01 00:40:34;;;;;;;18.88;9.35;;;;;;;;;;5121681;27;20095;-70
2023/01/01 00:43:01;;;;;;;17.20;9.88;;;;;;;;;;5123752;27;20182;-71
2023/01/01 00:45:27;;;;;;;18.30;8.73;;;;;;;;;;5123670;27;20059;-70
2023/01/01 00:47:54;;;;;;;13.35;7.63;;;;;;;;;;5116360;27;20056;-71
2023/01/01 00:50:21;;;;;;;15.02;7.53;;;;;;;;;;5110472;27;20051;-70
2023/01/01 00:52:47;;;;;;;16.40;7.63;;;;;;;;;;5112478;27;20567;-70
2023/01/01 00:55:14;;;;;;;14.13;9.15;;;;;;;;;;5128212;27;20589;-72
2023/01/01 00:57:41;;;;;;;16.50;6.95;;;;;;;;;;5113378;27;20548;-70
2023/01/01 01:00:08;;;;;;;15.52;7.40;;;;;;;;;;5110281;27;20133;-71
2023/01/01 01:02:35;;;;;;;18.05;6.88;;;;;;;;;;5121406;27;20086;-70
2023/01/01 01:05:03;;;;;;;14.35;6.80;;;;;;;;;;5117096;27;20739;-71
2023/01/01 01:07:36;;;;;;;13.95;6.30;;;;;;;;;;5123884;27;20074;-71
2023/01/01 01:10:03;;;;;;;18.60;6.25;;;;;;;;;;5123943;27;20043;-71
2023/01/01 01:12:29;;;;;;;15.85;5.45;;;;;;;;;;5117634;27;20054;-70
2023/01/01 01:14:56;;;;;;;15.07;5.32;;;;;;;;;;5113342;27;20387;-70
2023/01/01 01:17:22;;;;;;;11.88;6.32;;;;;;;;;;5088578;27;20501;-70
2023/01/01 01:19:48;;;;;;;12.02;5.25;;;;;;;;;;5128246;27;20416;-69
2023/01/01 01:22:15;;;;;;;11.18;5.10;;;;;;;;;;5143144;27;20074;-69
2023/01/01 01:24:41;;;;;;;11.48;4.65;;;;;;;;;;5123411;27;20058;-68
2023/01/01 01:27:08;;;;;;;14.32;5.03;;;;;;;;;;5124203;27;20055;-68
2023/01/01 01:29:34;;;;;;;18.83;5.43;;;;;;;;;;5107958;27;20529;-69
2023/01/01 01:32:01;;;;;;;12.93;4.85;;;;;;;;;;5117294;27;20569;-69
2023/01/01 01:34:27;;;;;;;8.70;4.03;;;;;;;;;;5123394;27;20048;-69
2023/01/01 01:36:54;;;;;;;9.20;3.53;;;;;;;;;;5127253;27;20043;-69
2023/01/01 01:39:21;;;;;;;9.65;3.47;;;;;;;;;;5120100;27;20058;-69
2023/01/01 01:41:47;;;;;;;10.05;4.03;;;;;;;;;;5142454;27;20044;-69
2023/01/01 01:44:32;;;;;;;14.20;4.07;;;;;;;;;;5124913;27;20482;-68
2023/01/01 01:47:00;;;;;;;13.10;3.47;;;;;;;;;;5120384;27;20051;-69
2023/01/01 01:49:27;;;;;;;8.60;3.22;;;;;;;;;;5122855;27;20051;-70
2023/01/01 01:51:54;;;;;;;9.90;3.30;;;;;;;;;;5120327;27;20151;-69
2023/01/01 01:54:23;;;;;;;7.88;3.58;;;;;;;;;;5118966;27;20142;-69
2023/01/01 01:57:15;;;;;;;10.07;2.78;;;;;;;;;;5107044;27;20522;-69
2023/01/01 01:59:45;;;;;;;8.10;2.53;;;;;;;;;;5116030;27;20536;-69
2023/01/01 02:02:20;;;;;;;8.55;3.08;;;;;;;;;;5106632;27;20056;-69
2023/01/01 02:04:47;;;;;;;10.18;2.88;;;;;;;;;;5103059;28;20510;-68
2023/01/01 02:07:14;;;;;;;9.32;3.15;;;;;;;;;;5103118;27;20052;-68
2023/01/01 02:09:40;;;;;;;6.20;2.30;;;;;;;;;;5117269;27;20438;-67
2023/01/01 02:12:07;;;;;;;15.00;3.45;;;;;;;;;;5089427;27;20531;-68
2023/01/01 02:14:33;;;;;;;14.20;3.63;;;;;;;;;;5121002;27;20130;-69
2023/01/01 02:17:14;;;;;;;10.75;2.42;;;;;;;;;;5123332;27;20048;-70
2023/01/01 02:19:41;;;;;;;7.03;2.53;;;;;;;;;;5142618;27;20048;-70
2023/01/01 02:22:15;;;;;;;10.65;2.40;;;;;;;;;;5131479;27;20553;-69
2023/01/01 02:25:00;;;;;;;7.45;2.20;;;;;;;;;;5117786;27;20130;-69
2023/01/01 02:27:26;;;;;;;10.90;2.60;;;;;;;;;;5122619;27;20051;-67
2023/01/01 02:29:56;;;;;;;7.85;2.42;;;;;;;;;;5137885;27;20130;-68
2023/01/01 02:32:25;;;;;;;9.45;2.45;;;;;;;;;;5107337;27;20055;-69
2023/01/01 02:35:33;;;;;;;7.03;1.92;;;;;;;;;;5110460;27;20048;-68
2023/01/01 02:37:51;;;;;;;9.20;2.75;;;;;;;;;;5126668;27;20043;-69
2023/01/01 02:40:20;;;;;;;4.78;2.83;;;;;;;;;;5119453;27;20154;-69
2023/01/01 02:42:47;;;;;;;7.40;2.40;;;;;;;;;;5131786;27;20051;-69
2023/01/01 02:45:13;;;;;;;14.85;2.60;;;;;;;;;;5120101;27;20047;-68
2023/01/01 02:47:40;;;;;;;8.95;2.72;;;;;;;;;;5122716;27;20142;-68
2023/01/01 02:50:15;;;;;;;5.45;2.22;;;;;;;;;;5104670;27;20135;-70
2023/01/01 02:53:00;;;;;;;7.75;2.58;;;;;;;;;;5103320;27;20048;-67
2023/01/01 02:55:26;;;;;;;5.80;2.00;;;;;;;;;;5108574;27;20139;-69
2023/01/01 03:00:17;;;;;;;4.80;2.33;;;;;;;;;;5139823;27;20371;-69
2023/01/01 03:00:48;;;;;;;9.88;2.47;;;;;;;;;;5117722;27;20048;-69
2023/01/01 03:03:24;;;;;;;8.88;2.70;;;;;;;;;;5116353;27;20051;-68
2023/01/01 03:06:25;;;;;;;8.93;2.25;;;;;;;;;;5122016;27;20048;-69
2023/01/01 03:08:53;;;;;;;7.45;2.08;;;;;;;;;;5106311;27;20442;-68
2023/01/01 03:11:22;;;;;;;4.57;1.98;;;;;;;;;;5114278;27;20517;-69
2023/01/01 03:13:48;;;;;;;7.03;1.95;;;;;;;;;;5113899;27;20532;-69
2023/01/01 03:16:17;;;;;;;6.72;2.17;;;;;;;;;;5122525;27;20048;-68
2023/01/01 03:19:09;;;;;;;4.90;1.70;;;;;;;;;;5104523;27;20048;-68
2023/01/01 03:21:44;;;;;;;9.45;2.55;;;;;;;;;;5105913;28;20056;-70
2023/01/01 03:24:18;;;;;;;6.32;1.95;;;;;;;;;;5110045;27;20325;-70
2023/01/01 03:26:46;;;;;;;7.63;2.00;;;;;;;;;;5125627;27;20048;-69
2023/01/01 03:29:12;;;;;;;7.95;2.10;;;;;;;;;;5097133;27;20437;-68
2023/01/01 03:31:41;;;;;;;6.38;1.83;;;;;;;;;;5121146;27;20059;-69
2023/01/01 03:34:10;;;;;;;4.28;2.25;;;;;;;;;;5118191;27;20507;-68
2023/01/01 03:36:39;;;;;;;7.80;2.35;;;;;;;;;;5113283;27;20514;-69
2023/01/01 03:39:05;;;;;;;4.00;1.55;;;;;;;;;;5118805;27;20049;-70
2023/01/01 03:41:34;;;;;;;3.15;1.30;;;;;;;;;;5104269;27;20056;-69
2023/01/01 03:44:12;;;;;;;9.18;2.67;;;;;;;;;;5110655;27;20048;-69
2023/01/01 03:46:38;;;;;;;9.57;2.10;;;;;;;;;;5109906;27;20052;-71
2023/01/01 03:49:06;;;;;;;11.77;1.88;;;;;;;;;;5110823;27;20127;-68
2023/01/01 03:51:56;;;;;;;8.93;2.25;;;;;;;;;;5103261;27;20056;-68
2023/01/01 03:54:26;;;;;;;7.88;1.80;;;;;;;;;;5111217;27;20048;-68
2023/01/01 03:57:00;;;;;;;3.58;2.03;;;;;;;;;;5106976;27;20051;-67
2023/01/01 03:59:34;;;;;;;4.53;1.80;;;;;;;;;;5117841;27;20525;-68
2023/01/01 04:02:02;;;;;;;10.43;1.90;;;;;;;;;;5104029;27;20087;-68
2023/01/01 04:04:29;;;;;;;5.22;1.90;;;;;;;;;;5104664;27;20051;-68
2023/01/01 04:06:56;;;;;;;8.88;2.03;;;;;;;;;;5119657;27;20043;-68
2023/01/01 04:09:27;;;;;;;4.78;2.30;;;;;;;;;;5116066;27;20621;-68
2023/01/01 04:12:03;;;;;;;6.03;1.77;;;;;;;;;;5103937;27;20056;-68
2023/01/01 04:14:30;;;;;;;9.70;1.85;;;;;;;;;;5104255;27;20036;-71
2023/01/01 04:16:56;;;;;;;6.20;1.90;;;;;;;;;;5103828;27;20056;-69
2023/01/01 04:19:23;;;;;;;5.53;1.75;;;;;;;;;;5123369;27;20363;-68
2023/01/01 04:21:49;;;;;;;4.78;1.70;;;;;;;;;;5123926;27;20055;-69
2023/01/01 04:24:15;;;;;;;5.50;2.10;;;;;;;;;;5111873;27;20452;-68
2023/01/01 04:26:42;;;;;;;8.10;2.20;;;;;;;;;;5102952;27;20454;-69
2023/01/01 04:29:09;;;;;;;4.55;1.63;;;;;;;;;;5112096;27;20056;-69
2023/01/01 04:31:36;;;;;;;4.85;1.63;;;;;;;;;;5103890;28;20367;-69
2023/01/01 04:34:02;;;;;;;5.75;1.85;;;;;;;;;;5104404;27;20632;-68
2023/01/01 04:36:29;;;;;;;6.53;1.67;;;;;;;;;;5097684;27;20105;-69
2023/01/01 04:38:55;;;;;;;4.50;1.40;;;;;;;;;;5115805;27;20054;-68
2023/01/01 04:41:21;;;;;;;9.35;1.60;;;;;;;;;;5116065;27;20434;-69
2023/01/01 04:43:49;;;;;;;9.50;1.50;;;;;;;;;;5111549;27;20071;-69
2023/01/01 04:46:16;;;;;;;6.50;1.73;;;;;;;;;;5103251;28;20050;-69
2023/01/01 04:48:42;;;;;;;7.68;2.05;;;;;;;;;;5106967;27;20059;-69
2023/01/01 04:51:10;;;;;;;9.65;2.55;;;;;;;;;;5104569;27;20545;-69
2023/01/01 04:53:37;;;;;;;4.43;1.40;;;;;;;;;;5103240;27;20080;-69
2023/01/01 04:56:04;;;;;;;9.38;2.25;;;;;;;;;;5112217;27;20555;-69
2023/01/01 04:58:31;;;;;;;9.55;1.90;;;;;;;;;;5119987;27;21261;-71
2023/01/01 05:00:57;;;;;;;5.63;1.60;;;;;;;;;;5103840;27;20594;-69
2023/01/01 05:03:24;;;;;;;8.05;1.77;;;;;;;;;;5105047;27;20060;-69
2023/01/01 05:06:09;;;;;;;7.20;2.13;;;;;;;;;;5113825;27;20047;-68
2023/01/01 05:08:37;;;;;;;9.55;4.78;;;;;;;;;;5121040;27;20052;-68
2023/01/01 05:11:09;;;;;;;6.90;1.73;;;;;;;;;;5122814;27;20206;-70
2023/01/01 05:13:37;;;;;;;5.93;1.90;;;;;;;;;;5122887;27;20127;-68
2023/01/01 05:16:04;;;;;;;5.75;1.85;;;;;;;;;;5112307;27;20562;-68
2023/01/01 05:18:31;;;;;;;4.63;1.65;;;;;;;;;;5121423;27;20077;-69
2023/01/01 05:21:01;;;;;;;7.18;2.30;;;;;;;;;;5122451;27;20097;-68
2023/01/01 05:23:28;;;;;;;4.90;1.70;;;;;;;;;;5105494;27;20051;-69
2023/01/01 05:25:54;;;;;;;6.15;2.10;;;;;;;;;;5122721;27;20040;-68
2023/01/01 05:28:22;;;;;;;5.15;2.05;;;;;;;;;;5115223;27;20498;-70
2023/01/01 05:30:51;;;;;;;3.15;1.27;;;;;;;;;;5106029;27;20051;-71
2023/01/01 05:33:18;;;;;;;7.80;1.52;;;;;;;;;;5119768;27;20085;-70
2023/01/01 05:35:44;;;;;;;6.28;1.20;;;;;;;;;;5122687;27;21019;-70
2023/01/01 05:38:11;;;;;;;6.63;1.40;;;;;;;;;;5105128;27;20080;-69
2023/01/01 05:40:38;;;;;;;4.75;1.30;;;;;;;;;;5120443;27;21035;-70
2023/01/01 05:43:07;;;;;;;5.25;1.45;;;;;;;;;;5102891;27;20129;-70
2023/01/01 05:45:34;;;;;;;7.70;1.70;;;;;;;;;;5101698;27;20131;-70
2023/01/01 05:48:01;;;;;;;7.43;1.35;;;;;;;;;;5102066;27;20049;-70
2023/01/01 05:50:27;;;;;;;5.95;1.45;;;;;;;;;;5089016;27;20518;-70
2023/01/01 05:52:54;;;;;;;3.97;1.40;;;;;;;;;;5122277;27;20431;-72
2023/01/01 05:55:20;;;;;;;5.53;1.25;;;;;;;;;;5123103;27;20547;-71
2023/01/01 05:57:46;;;;;;;5.38;1.55;;;;;;;;;;5109846;27;20735;-70
2023/01/01 06:00:13;;;;;;;3.85;1.55;;;;;;;;;;5101965;27;20489;-70
2023/01/01 06:02:40;;;;;;;7.55;1.65;;;;;;;;;;5102165;27;20151;-70
2023/01/01 06:05:07;;;;;;;4.72;1.75;;;;;;;;;;5102042;27;20044;-71
2023/01/01 06:07:33;;;;;;;4.80;1.15;;;;;;;;;;5111715;27;20128;-70
2023/01/01 06:09:59;;;;;;;5.55;2.67;;;;;;;;;;5121751;27;20047;-69
2023/01/01 06:12:26;;;;;;;2.72;1.10;;;;;;;;;;5119078;27;20040;-70
2023/01/01 06:14:52;;;;;;;5.38;1.42;;;;;;;;;;5122327;27;20051;-71
2023/01/01 06:17:18;;;;;;;5.43;1.60;;;;;;;;;;5115991;27;20047;-70
2023/01/01 06:19:45;;;;;;;7.28;1.25;;;;;;;;;;5120741;27;20040;-71
2023/01/01 06:22:11;;;;;;;4.50;1.25;;;;;;;;;;5121029;27;20048;-70
2023/01/01 06:24:37;;;;;;;3.38;1.10;;;;;;;;;;5122287;27;20059;-70
2023/01/01 06:27:05;;;;;;;3.88;1.27;;;;;;;;;;5099716;27;20055;-71
2023/01/01 06:29:32;;;;;;;4.35;1.23;;;;;;;;;;5093585;27;20211;-70
2023/01/01 06:31:58;;;;;;;8.00;1.42;;;;;;;;;;5124878;27;20060;-70
2023/01/01 06:34:24;;;;;;;6.95;1.73;;;;;;;;;;5110567;27;20056;-70
2023/01/01 06:36:51;;;;;;;8.15;1.48;;;;;;;;;;5117126;27;20460;-69
2023/01/01 06:39:17;;;;;;;2.85;1.15;;;;;;;;;;5109404;27;20086;-71
2023/01/01 06:41:43;;;;;;;3.25;1.13;;;;;;;;;;5108839;27;20052;-69
2023/01/01 06:44:10;;;;;;;2.33;0.80;;;;;;;;;;5110786;27;20052;-70
2023/01/01 06:46:36;;;;;;;3.30;1.30;;;;;;;;;;5117968;27;20035;-71
2023/01/01 06:49:04;;;;;;;4.78;0.85;;;;;;;;;;5124860;27;20048;-71
2023/01/01 06:51:38;;;;;;;5.13;0.90;;;;;;;;;;5126224;27;20534;-70
2023/01/01 06:54:04;;;;;;;6.30;1.63;;;;;;;;;;5113441;27;20131;-70
2023/01/01 06:56:31;;;;;;;2.50;0.75;;;;;;;;;;5122563;27;20356;-69
2023/01/01 06:58:57;;;;;;;2.22;0.90;;;;;;;;;;5108051;27;20052;-70
2023/01/01 07:01:28;;;;;;;3.25;1.00;;;;;;;;;;5107833;27;20135;-71
2023/01/01 07:03:55;;;;;;;2.97;1.17;;;;;;;;;;5117231;27;20051;-70
2023/01/01 07:06:22;;;;;;;9.20;1.17;;;;;;;;;;5124354;27;20532;-70
2023/01/01 07:08:48;;;;;;;5.95;1.15;;;;;;;;;;5097565;27;20422;-70
2023/01/01 07:11:15;;;;;;;4.97;1.33;;;;;;;;;;5120351;27;20044;-69
2023/01/01 07:13:42;;;;;;;6.10;1.13;;;;;;;;;;5121029;27;20050;-70
2023/01/01 07:16:09;;;;;;;3.67;0.98;;;;;;;;;;5119562;27;20048;-70
2023/01/01 07:18:39;;;;;;;3.28;1.17;;;;;;;;;;5117370;27;20135;-70
2023/01/01 07:21:06;;;;;;;5.28;1.35;;;;;;;;;;5125494;27;20048;-70
2023/01/01 07:23:33;;;;;;;5.13;1.35;;;;;;;;;;5116437;27;20203;-70
2023/01/01 07:26:00;;;;;;;11.45;1.75;;;;;;;;;;5103029;27;20114;-70
2023/01/01 07:28:26;;;;;;;3.60;0.95;;;;;;;;;;5107659;27;20491;-70
2023/01/01 07:30:53;;;;;;;4.60;1.38;;;;;;;;;;5120306;27;20525;-70
2023/01/01 07:33:20;;;;;;;4.90;1.20;;;;;;;;;;5122506;27;20048;-70
2023/01/01 07:35:47;;;;;;;6.68;1.08;;;;;;;;;;5125399;27;20500;-70
2023/01/01 07:38:14;;;;;;;6.15;1.08;;;;;;;;;;5109305;27;20047;-69
2023/01/01 07:40:40;;;;;;;6.38;1.40;;;;;;;;;;5119052;27;20048;-70
2023/01/01 07:43:07;;;;;;;4.95;1.52;;;;;;;;;;5115179;27;20163;-70
2023/01/01 07:45:33;;;;;;;6.35;1.23;;;;;;;;;;5105291;27;20075;-71
2023/01/01 07:48:00;;;;;;;6.68;1.65;;;;;;;;;;5115854;27;20830;-70
2023/01/01 07:50:27;;;;;;;6.22;1.48;;;;;;;;;;5119405;27;20055;-70
2023/01/01 07:52:54;;;;;;;4.28;1.10;;;;;;;;;;5124763;27;20505;-69
2023/01/01 07:55:20;;;;;;;6.22;1.50;;;;;;;;;;5107634;27;20132;-69
2023/01/01 07:57:47;;;;;;;5.20;1.17;;;;;;;;;;5121291;27;20134;-70
2023/01/01 08:00:17;;;;;;;9.68;1.50;;;;;;;;;;5130692;27;20485;-70
2023/01/01 08:02:44;;;;;;;5.05;1.15;;;;;;;;;;5118612;27;20149;-70
2023/01/01 08:05:11;;;;;;;3.30;0.80;;;;;;;;;;5119955;27;20050;-69
2023/01/01 08:07:37;;;;;;;3.55;0.73;;;;;;;;;;5124282;27;20052;-69
2023/01/01 08:10:04;;;;;;;3.65;0.90;;;;;;;;;;5119818;27;20058;-69
2023/01/01 08:12:31;;;;;;;8.52;2.00;;;;;;;;;;5119009;27;20051;-70
2023/01/01 08:14:57;;;;;;;7.90;1.38;;;;;;;;;;5115369;27;20060;-69
2023/01/01 08:17:23;;;;;;;9.55;1.58;;;;;;;;;;5109227;27;20117;-69
2023/01/01 08:19:51;;;;;;;3.15;0.73;;;;;;;;;;5110276;27;20663;-70
2023/01/01 08:22:18;;;;;;;9.45;1.45;;;;;;;;;;5113956;27;20055;-69
2023/01/01 08:24:44;;;;;;;9.10;1.13;;;;;;;;;;5115270;27;20518;-69
2023/01/01 08:27:14;;;;;;;5.38;1.75;;;;;;;;;;5104004;27;20075;-69
2023/01/01 08:29:41;;;;;;;4.32;1.10;;;;;;;;;;5088224;27;20536;-69
2023/01/01 08:32:08;;;;;;;6.45;1.20;;;;;;;;;;5118915;27;20143;-70
2023/01/01 08:34:34;;;;;;;3.20;0.98;;;;;;;;;;5091524;27;20541;-69
2023/01/01 08:37:00;;;;;;;6.35;0.93;;;;;;;;;;5113166;27;20341;-71
2023/01/01 08:39:27;;;;;;;6.38;1.40;;;;;;;;;;5097094;27;20054;-70
2023/01/01 08:41:53;;;;;;;7.00;1.13;;;;;;;;;;5122829;27;20059;-70
2023/01/01 08:44:19;;;;;;;6.50;1.13;;;;;;;;;;5123152;27;20521;-70
2023/01/01 08:46:46;;;;;;;8.57;2.35;;;;;;;;;;5122895;27;20113;-70
2023/01/01 08:49:12;;;;;;;8.80;1.48;;;;;;;;;;5123515;27;20501;-70
2023/01/01 08:51:39;;;;;;;6.90;1.38;;;;;;;;;;5103765;27;20114;-70
2023/01/01 08:54:06;;;;;;;7.65;1.17;;;;;;;;;;5111448;27;20524;-70
2023/01/01 08:56:32;;;;;;;3.15;0.95;;;;;;;;;;5120243;27;20063;-69
2023/01/01 08:58:59;;;;;;;8.25;1.23;;;;;;;;;;5105922;27;20055;-70
2023/01/01 09:01:29;;;;;;;11.52;1.48;;;;;;;;;;5103090;27;20098;-70
2023/01/01 09:03:56;;;;;;;7.68;0.95;;;;;;;;;;5106824;27;20055;-70
2023/01/01 09:06:22;;;;;;;9.07;1.77;;;;;;;;;;5120940;27;20042;-69
2023/01/01 09:08:48;;;;;;;4.55;1.20;;;;;;;;;;5098439;27;20067;-71
2023/01/01 09:11:25;;;;;;;5.22;1.33;;;;;;;;;;5106629;27;20052;-71
2023/01/01 09:13:53;;;;;;;9.02;1.35;;;;;;;;;;5103717;27;20186;-69
2023/01/01 09:16:20;;;;;;;7.13;1.95;;;;;;;;;;5115857;27;20502;-69
2023/01/01 09:18:46;;;;;;;9.63;1.38;;;;;;;;;;5103417;27;20090;-70
2023/01/01 09:21:13;;;;;;;6.75;1.50;;;;;;;;;;5114734;27;20524;-69
2023/01/01 09:23:40;;;;;;;8.35;1.20;;;;;;;;;;5121573;27;20054;-70
2023/01/01 09:26:07;;;;;;;7.35;1.33;;;;;;;;;;5085210;27;20048;-70
2023/01/01 09:28:34;;;;;;;6.90;1.17;;;;;;;;;;5113346;27;20087;-69
2023/01/01 09:31:01;;;;;;;8.10;1.30;;;;;;;;;;5108662;27;20632;-70
2023/01/01 09:33:27;;;;;;;8.85;1.60;;;;;;;;;;5103559;27;20082;-70
2023/01/01 09:35:54;;;;;;;9.13;1.33;;;;;;;;;;5100671;28;20036;-70
2023/01/01 09:38:20;;;;;;;10.80;1.52;;;;;;;;;;5101717;27;20425;-70
2023/01/01 09:41:04;;;;;;;10.70;1.77;;;;;;;;;;5120234;27;20079;-70
2023/01/01 09:43:46;;;;;;;6.30;1.67;;;;;;;;;;5109239;27;20052;-70
2023/01/01 09:46:13;;;;;;;5.55;1.58;;;;;;;;;;5109202;27;20525;-69
2023/01/01 09:48:45;;;;;;;7.63;1.20;;;;;;;;;;5112037;27;20599;-70
2023/01/01 09:51:14;;;;;;;5.22;1.42;;;;;;;;;;5124488;27;20493;-70
2023/01/01 09:53:47;;;;;;;5.90;1.88;;;;;;;;;;5117592;27;20091;-69
2023/01/01 09:56:24;;;;;;;7.10;1.15;;;;;;;;;;5101693;27;20473;-70
2023/01/01 09:58:51;;;;;;;5.70;1.30;;;;;;;;;;5106314;27;20119;-70
2023/01/01 10:01:36;;;;;;;12.50;1.30;;;;;;;;;;5112265;27;20083;-70
2023/01/01 10:04:17;;;;;;;4.28;1.10;;;;;;;;;;5106811;27;20052;-70
2023/01/01 10:06:52;;;;;;;5.50;1.08;;;;;;;;;;5104449;27;20047;-70
2023/01/01 10:09:26;;;;;;;6.97;1.40;;;;;;;;;;5114199;27;20051;-69
2023/01/01 10:12:03;;;;;;;7.35;1.75;;;;;;;;;;5126510;27;20072;-70
2023/01/01 10:14:31;;;;;;;8.60;1.35;;;;;;;;;;5119232;27;20071;-70
2023/01/01 10:17:00;;;;;;;6.78;2.17;;;;;;;;;;5125404;27;20059;-70
2023/01/01 10:19:33;;;;;;;8.13;1.50;;;;;;;;;;5125888;27;20130;-71
2023/01/01 10:22:02;;;;;;;7.70;1.60;;;;;;;;;;5107875;27;20048;-70
2023/01/01 10:24:37;;;;;;;7.28;1.90;;;;;;;;;;5125558;27;20048;-70
2023/01/01 10:27:04;;;;;;;;;;;;;;;;;;5122954;27;20051;-69
2023/01/01 10:29:41;;;;;;;5.68;1.40;;;;;;;;;;5118732;27;45738;-70
2023/01/01 10:32:17;;;;;;;8.80;2.28;;;;;;;;;;5096230;27;20567;-70
2023/01/01 10:34:43;;;;;;;7.72;1.95;;;;;;;;;;5119998;27;20047;-70
2023/01/01 10:37:11;;;;;;;6.03;1.23;;;;;;;;;;5125417;27;20512;-70
2023/01/01 10:39:37;;;;;;;8.45;1.73;;;;;;;;;;5120682;27;20048;-70
2023/01/01 10:42:04;;;;;;;6.55;1.65;;;;;;;;;;5105835;27;20102;-70
2023/01/01 10:44:33;;;;;;;11.45;1.50;;;;;;;;;;5104952;27;20594;-71
2023/01/01 10:47:08;;;;;;;7.10;1.45;;;;;;;;;;5123832;27;20489;-70
2023/01/01 10:49:52;;;;;;;5.20;1.38;;;;;;;;;;5118410;27;20524;-69
2023/01/01 10:52:20;;;;;;;7.45;1.50;;;;;;;;;;5111431;27;20048;-70
2023/01/01 10:54:48;;;;;;;7.60;1.65;;;;;;;;;;5122821;27;20052;-70
2023/01/01 10:57:16;;;;;;;3.03;0.93;;;;;;;;;;5122925;27;20058;-70
2023/01/01 10:59:44;;;;;;;9.50;1.98;;;;;;;;;;5122252;27;20601;-70
2023/01/01 11:02:20;;;;;;;5.40;1.65;;;;;;;;;;5122111;27;20071;-71
2023/01/01 11:04:48;;;;;;;5.93;1.95;;;;;;;;;;5108108;27;20132;-70
2023/01/01 11:07:40;;;;;;;11.02;1.80;;;;;;;;;;5124465;27;20254;-69
2023/01/01 11:10:13;;;;;;;6.90;1.60;;;;;;;;;;5106451;27;20664;-70
2023/01/01 11:12:40;;;;;;;13.52;1.88;;;;;;;;;;5115642;27;20499;-70
2023/01/01 11:15:35;;;;;;;8.38;1.58;;;;;;;;;;5112843;27;21793;-70
2023/01/01 11:18:02;;;;;;;9.45;2.20;;;;;;;;;;5110519;27;20104;-70
2023/01/01 11:20:29;;;;;;;7.18;2.40;;;;;;;;;;5104215;27;20151;-69
2023/01/01 11:22:55;;;;;;;6.05;2.05;;;;;;;;;;5110609;27;20056;-70
2023/01/01 11:25:24;;;;;;;9.95;2.90;;;;;;;;;;5122043;27;20081;-70
2023/01/01 11:27:51;;;;;;;10.95;2.53;;;;;;;;;;5123812;27;20055;-71
2023/01/01 11:30:23;;;;;;;8.95;1.65;;;;;;;;;;5102043;27;20502;-69
2023/01/01 11:32:52;;;;;;;5.35;2.03;;;;;;;;;;5121961;27;20051;-71
2023/01/01 11:35:22;;;;;;;7.47;1.40;;;;;;;;;;5145995;27;20445;-69
2023/01/01 11:37:49;;;;;;;6.63;1.63;;;;;;;;;;5140529;27;20481;-70
2023/01/01 11:40:17;;;;;;;10.38;2.20;;;;;;;;;;5117996;27;20059;-69
2023/01/01 11:42:46;;;;;;;7.28;2.42;;;;;;;;;;5111317;27;20548;-69
2023/01/01 11:45:15;;;;;;;10.45;2.38;;;;;;;;;;5110982;27;20056;-70
2023/01/01 11:47:43;;;;;;;9.02;2.47;;;;;;;;;;5109476;27;20043;-71
2023/01/01 11:50:12;;;;;;;7.55;2.05;;;;;;;;;;5125742;27;20128;-71
2023/01/01 11:52:40;;;;;;;6.78;1.67;;;;;;;;;;5108145;27;20529;-70
2023/01/01 11:55:23;;;;;;;9.40;1.90;;;;;;;;;;5118683;27;20139;-71
2023/01/01 11:57:55;;;;;;;9.40;2.03;;;;;;;;;;5115660;27;20062;-70
2023/01/01 12:00:21;;;;;;;8.55;2.10;;;;;;;;;;5114149;27;20151;-70
2023/01/01 12:02:53;;;;;;;9.82;2.13;;;;;;;;;;5124707;27;20054;-70
2023/01/01 12:05:24;;;;;;;9.43;1.77;;;;;;;;;;5107305;27;20087;-70
2023/01/01 12:07:51;;;;;;;5.85;1.67;;;;;;;;;;5106465;27;20056;-71
2023/01/01 12:10:25;;;;;;;6.25;2.08;;;;;;;;;;5104207;27;20436;-70
2023/01/01 12:12:56;;;;;;;9.63;2.58;;;;;;;;;;5116643;27;20639;-70
2023/01/01 12:15:30;;;;;;;8.82;2.13;;;;;;;;;;5105000;27;20616;-70
2023/01/01 12:18:02;;;;;;;6.60;1.70;;;;;;;;;;5123588;27;20082;-70
2023/01/01 12:20:34;;;;;;;6.70;2.00;;;;;;;;;;5124011;27;20059;-71
2023/01/01 12:23:00;;;;;;;7.30;2.10;;;;;;;;;;5114709;27;20766;-71
2023/01/01 12:25:47;;;;;;;10.70;2.40;;;;;;;;;;5124471;27;20540;-71
2023/01/01 12:28:25;;;;;;;12.98;2.38;;;;;;;;;;5124277;27;20595;-70
2023/01/01 12:31:12;;;;;;;8.43;2.28;;;;;;;;;;5124029;27;20457;-73
2023/01/01 12:33:39;;;;;;;8.20;1.95;;;;;;;;;;5122682;27;20055;-69
2023/01/01 12:36:14;;;;;;;9.73;2.35;;;;;;;;;;5115842;27;20529;-70
2023/01/01 12:39:06;;;;;;;12.35;2.60;;;;;;;;;;5104853;27;21139;-70
2023/01/01 12:41:51;;;;;;;10.82;2.05;;;;;;;;;;5082215;27;20098;-70
2023/01/01 12:44:41;;;;;;;11.35;2.60;;;;;;;;;;5125628;27;20121;-69
2023/01/01 12:47:07;;;;;;;12.60;2.42;;;;;;;;;;5021027;28;20511;-70
2023/01/01 12:49:52;;;;;;;15.25;2.65;;;;;;;;;;5037022;28;21299;-70
2023/01/01 12:52:24;;;;;;;7.90;2.60;;;;;;;;;;5039418;28;20519;-70
2023/01/01 12:54:59;;;;;;;10.85;2.63;;;;;;;;;;5049957;28;20055;-69
2023/01/01 12:57:35;;;;;;;7.00;2.03;;;;;;;;;;5038845;28;20116;-69
2023/01/01 13:00:10;;;;;;;9.13;2.45;;;;;;;;;;5025358;28;20398;-70
2023/01/01 13:02:38;;;;;;;9.52;2.30;;;;;;;;;;5020672;28;20505;-69
2023/01/01 13:05:12;;;;;;;7.05;1.92;;;;;;;;;;5023631;28;20088;-70
2023/01/01 13:07:39;;;;;;;12.10;2.13;;;;;;;;;;5026962;28;20329;-69
2023/01/01 13:10:09;;;;;;;20.88;4.68;;;;;;;;;;5020076;28;20062;-69
2023/01/01 13:12:36;;;;;;;8.88;1.77;;;;;;;;;;5019113;28;20386;-69
2023/01/01 13:15:23;;;;;;;7.30;2.72;;;;;;;;;;5020670;28;20699;-70
2023/01/01 13:17:52;;;;;;;14.07;2.17;;;;;;;;;;5025047;28;20666;-69
2023/01/01 13:20:23;;;;;;;11.52;1.75;;;;;;;;;;5022239;28;20060;-69
2023/01/01 13:22:50;;;;;;;8.70;2.03;;;;;;;;;;5030803;28;20053;-71
2023/01/01 13:25:16;;;;;;;8.32;2.33;;;;;;;;;;5098353;28;20044;-70
2023/01/01 13:28:03;;;;;;;8.77;2.15;;;;;;;;;;5103530;28;20095;-71
2023/01/01 13:30:36;;;;;;;10.57;1.88;;;;;;;;;;5109374;27;20062;-71
2023/01/01 13:33:22;;;;;;;11.27;2.20;;;;;;;;;;5124687;27;20082;-70
2023/01/01 13:36:13;;;;;;;9.27;3.28;;;;;;;;;;5119535;27;20063;-71
2023/01/01 13:38:55;;;;;;;19.77;5.13;;;;;;;;;;5130895;27;20583;-72
2023/01/01 13:41:40;;;;;;;12.00;2.90;;;;;;;;;;5120464;27;20062;-71
2023/01/01 13:44:06;;;;;;;8.43;2.47;;;;;;;;;;5109830;27;20049;-70
2023/01/01 13:46:37;;;;;;;16.38;2.05;;;;;;;;;;5103997;28;20082;-70
2023/01/01 13:49:16;;;;;;;14.40;5.25;;;;;;;;;;5112948;27;20058;-70
2023/01/01 13:52:03;;;;;;;12.55;2.65;;;;;;;;;;5139712;27;20048;-70
2023/01/01 13:54:50;;;;;;;10.15;2.88;;;;;;;;;;5081312;27;20080;-70
2023/01/01 13:57:19;;;;;;;10.25;2.65;;;;;;;;;;5102718;28;20052;-70
2023/01/01 13:59:51;;;;;;;9.93;2.80;;;;;;;;;;5102459;28;20503;-70
2023/01/01 14:02:29;;;;;;;9.18;2.10;;;;;;;;;;5103306;27;20051;-70
2023/01/01 14:05:02;;;;;;;12.13;1.83;;;;;;;;;;5102344;28;20058;-70
2023/01/01 14:07:28;;;;;;;11.63;2.55;;;;;;;;;;5102346;28;20040;-70
2023/01/01 14:10:14;;;;;;;13.10;3.35;;;;;;;;;;5108188;27;20655;-70
2023/01/01 14:12:41;;;;;;;9.93;2.40;;;;;;;;;;5110660;27;20536;-70
2023/01/01 14:15:26;;;;;;;8.52;2.75;;;;;;;;;;5113609;27;20040;-70
2023/01/01 14:17:55;;;;;;;8.63;2.40;;;;;;;;;;5121074;27;20116;-70
2023/01/01 14:20:22;;;;;;;7.45;1.77;;;;;;;;;;5123115;27;20075;-70
2023/01/01 14:22:50;;;;;;;10.57;2.47;;;;;;;;;;5118737;27;20172;-69
2023/01/01 14:25:19;;;;;;;15.35;2.45;;;;;;;;;;5102324;28;20483;-69
2023/01/01 14:27:45;;;;;;;9.07;1.95;;;;;;;;;;5104203;27;20041;-69
2023/01/01 14:30:16;;;;;;;13.88;3.58;;;;;;;;;;5114516;27;20498;-70
2023/01/01 14:32:42;;;;;;;4.32;2.03;;;;;;;;;;5105231;27;20104;-70
2023/01/01 14:35:15;;;;;;;8.13;2.88;;;;;;;;;;5109193;27;20062;-70
2023/01/01 14:37:42;;;;;;;8.75;2.33;;;;;;;;;;5122665;27;20112;-70
2023/01/01 14:40:29;;;;;;;13.48;2.90;;;;;;;;;;5104676;27;20082;-70
2023/01/01 14:43:09;;;;;;;9.38;1.88;;;;;;;;;;5106783;27;20052;-70
2023/01/01 14:45:41;;;;;;;9.93;2.00;;;;;;;;;;5121892;27;20056;-69
2023/01/01 14:48:12;;;;;;;7.97;2.30;;;;;;;;;;5122949;27;20424;-70
2023/01/01 14:50:38;;;;;;;10.75;2.38;;;;;;;;;;5108786;27;20052;-69
2023/01/01 14:53:11;;;;;;;10.43;1.95;;;;;;;;;;5125334;27;20146;-70
2023/01/01 14:55:41;;;;;;;8.75;3.67;;;;;;;;;;5110193;27;20044;-70